Time;durP1;ratioP1;P1;durP2;ratioP2;P2;SDS_P1;SDS_P2;PMS_P1;PMS_P2;Temp;Humidity;BMP_temperature;BMP_pressure;BME280_temperature;BME280_humidity;BME280_pressure;Samples;Min_cycle;Max_cycle;Signal;HPM_P1;HPM_P2
2024/04/16 00:00:11;;;;;;;5.20;1.03;;;;;;;;;;5382628;26;20906;-86
2024/04/16 00:02:37;;;;;;;4.00;1.70;;;;;;;;;;5382218;26;20452;-87
2024/04/16 00:05:03;;;;;;;6.43;1.90;;;;;;;;;;5384401;26;20574;-87
2024/04/16 00:07:28;;;;;;;4.97;1.47;;;;;;;;;;5384468;26;21017;-86
2024/04/16 00:09:54;;;;;;;2.20;0.97;;;;;;;;;;5384268;26;20448;-88
2024/04/16 00:12:20;;;;;;;4.27;2.13;;;;;;;;;;5384498;26;20952;-86
2024/04/16 00:14:46;;;;;;;2.50;0.70;;;;;;;;;;5383465;26;20906;-85
2024/04/16 00:17:12;;;;;;;3.17;1.20;;;;;;;;;;5411130;26;20520;-84
2024/04/16 00:19:38;;;;;;;6.67;1.43;;;;;;;;;;5419474;26;20449;-85
2024/04/16 00:22:04;;;;;;;3.77;1.20;;;;;;;;;;5418240;26;21020;-88
2024/04/16 00:24:30;;;;;;;1.80;0.87;;;;;;;;;;5420132;26;20447;-86
2024/04/16 00:26:56;;;;;;;2.07;0.83;;;;;;;;;;5419923;26;20463;-86
2024/04/16 00:29:22;;;;;;;3.87;1.33;;;;;;;;;;5420047;26;20505;-86
2024/04/16 00:31:47;;;;;;;2.53;1.70;;;;;;;;;;5418212;26;20454;-86
2024/04/16 00:34:13;;;;;;;2.73;1.17;;;;;;;;;;5419643;26;20571;-90
2024/04/16 00:36:39;;;;;;;1.43;0.57;;;;;;;;;;5421180;26;20550;-91
2024/04/16 00:39:07;;;;;;;1.47;1.03;;;;;;;;;;5419346;26;20841;-87
2024/04/16 00:41:33;;;;;;;2.90;0.70;;;;;;;;;;5419214;26;20457;-86
2024/04/16 00:43:59;;;;;;;1.20;0.67;;;;;;;;;;5417602;26;20503;-87
2024/04/16 00:46:25;;;;;;;3.87;0.70;;;;;;;;;;5419853;26;20504;-88
2024/04/16 00:48:51;;;;;;;5.40;1.73;;;;;;;;;;5420346;26;20796;-88
2024/04/16 00:51:17;;;;;;;1.80;0.43;;;;;;;;;;5420863;26;20496;-93
2024/04/16 00:53:43;;;;;;;1.50;0.63;;;;;;;;;;5421304;26;20441;-85
2024/04/16 00:56:09;;;;;;;1.80;0.43;;;;;;;;;;5421591;26;20453;-91
2024/04/16 00:58:35;;;;;;;2.60;0.53;;;;;;;;;;5430163;26;20500;-88
2024/04/16 01:01:01;;;;;;;4.33;0.60;;;;;;;;;;5419591;26;20977;-90
2024/04/16 01:03:27;;;;;;;3.57;1.03;;;;;;;;;;5420751;26;20496;-87
2024/04/16 01:05:53;;;;;;;3.63;0.60;;;;;;;;;;5420762;26;20448;-88
2024/04/16 01:08:19;;;;;;;3.43;0.90;;;;;;;;;;5418513;26;20464;-85
2024/04/16 01:10:45;;;;;;;3.77;0.70;;;;;;;;;;5420291;26;20452;-86
2024/04/16 01:13:11;;;;;;;1.73;0.43;;;;;;;;;;5421186;26;20437;-87
2024/04/16 01:15:37;;;;;;;2.30;0.80;;;;;;;;;;5419319;26;20570;-86
2024/04/16 01:18:05;;;;;;;1.80;0.87;;;;;;;;;;5417752;26;20473;-86
2024/04/16 01:20:31;;;;;;;2.40;0.93;;;;;;;;;;5417433;26;21012;-91
2024/04/16 01:22:57;;;;;;;1.90;0.60;;;;;;;;;;5418633;26;20445;-93
2024/04/16 01:25:23;;;;;;;1.93;1.30;;;;;;;;;;5419519;26;20496;-87
2024/04/16 01:27:49;;;;;;;2.23;0.90;;;;;;;;;;5419648;26;20492;-90
2024/04/16 01:30:15;;;;;;;2.80;0.80;;;;;;;;;;5419397;26;20520;-88
2024/04/16 01:32:41;;;;;;;2.00;0.73;;;;;;;;;;5419475;26;20615;-87
2024/04/16 01:35:07;;;;;;;3.73;1.37;;;;;;;;;;5418208;26;20825;-85
2024/04/16 01:37:33;;;;;;;2.10;0.80;;;;;;;;;;5419727;26;20455;-90
2024/04/16 01:39:59;;;;;;;1.17;0.60;;;;;;;;;;5417926;26;20572;-88
2024/04/16 01:42:25;;;;;;;2.60;0.90;;;;;;;;;;5417471;26;21084;-88
2024/04/16 01:44:56;;;;;;;4.53;1.17;;;;;;;;;;5419556;26;20523;-88
2024/04/16 01:47:22;;;;;;;2.10;1.00;;;;;;;;;;5416832;26;20471;-92
2024/04/16 01:49:48;;;;;;;2.70;0.97;;;;;;;;;;5417281;26;20809;-85
2024/04/16 01:52:14;;;;;;;1.20;0.40;;;;;;;;;;5419012;26;20563;-91
2024/04/16 01:54:40;;;;;;;2.97;1.43;;;;;;;;;;5417297;26;20456;-85
2024/04/16 01:57:06;;;;;;;2.50;1.67;;;;;;;;;;5417374;26;20563;-88
2024/04/16 01:59:32;;;;;;;1.90;0.60;;;;;;;;;;5418839;26;20991;-89
2024/04/16 02:01:58;;;;;;;1.73;0.80;;;;;;;;;;5418439;26;20570;-88
2024/04/16 02:04:24;;;;;;;3.07;1.40;;;;;;;;;;5416404;26;20521;-89
2024/04/16 02:06:50;;;;;;;2.10;1.03;;;;;;;;;;5416919;26;20972;-86
2024/04/16 02:09:16;;;;;;;2.57;1.43;;;;;;;;;;5418638;26;20930;-86
2024/04/16 02:11:44;;;;;;;1.47;0.57;;;;;;;;;;5416741;26;20522;-86
2024/04/16 02:14:09;;;;;;;2.70;1.53;;;;;;;;;;5418399;26;20452;-86
2024/04/16 02:16:35;;;;;;;3.90;1.17;;;;;;;;;;5418533;26;20567;-88
2024/04/16 02:19:01;;;;;;;1.73;1.17;;;;;;;;;;5416527;26;20591;-87
2024/04/16 02:21:27;;;;;;;3.60;0.67;;;;;;;;;;5416442;26;20590;-88
2024/04/16 02:23:53;;;;;;;2.80;0.80;;;;;;;;;;5418497;26;20877;-87
2024/04/16 02:26:19;;;;;;;2.63;0.73;;;;;;;;;;5416637;26;20505;-87
2024/04/16 02:28:45;;;;;;;3.03;0.83;;;;;;;;;;5418513;26;20545;-87
2024/04/16 02:31:11;;;;;;;1.80;1.27;;;;;;;;;;5416462;26;20453;-86
2024/04/16 02:33:37;;;;;;;3.00;1.13;;;;;;;;;;5417936;26;21160;-87
2024/04/16 02:36:03;;;;;;;1.43;0.70;;;;;;;;;;5418037;26;20445;-87
2024/04/16 02:38:29;;;;;;;5.93;1.47;;;;;;;;;;5415485;26;20473;-86
2024/04/16 02:40:55;;;;;;;4.93;1.07;;;;;;;;;;5415444;26;20464;-86
2024/04/16 02:43:21;;;;;;;4.00;1.20;;;;;;;;;;5417285;26;20461;-85
2024/04/16 02:45:47;;;;;;;1.63;0.67;;;;;;;;;;5417305;26;20511;-84
2024/04/16 02:48:13;;;;;;;1.73;1.43;;;;;;;;;;5416764;26;20973;-86
2024/04/16 02:50:39;;;;;;;1.97;1.40;;;;;;;;;;5417140;26;20477;-85
2024/04/16 02:53:05;;;;;;;1.30;0.80;;;;;;;;;;5415092;26;21075;-86
2024/04/16 02:55:31;;;;;;;1.63;0.57;;;;;;;;;;5417264;26;20467;-85
2024/04/16 02:57:57;;;;;;;4.90;1.13;;;;;;;;;;5416887;26;20516;-84
2024/04/16 03:00:23;;;;;;;3.33;1.37;;;;;;;;;;5417079;26;20478;-85
2024/04/16 03:02:49;;;;;;;2.30;1.00;;;;;;;;;;5414606;26;20825;-85
2024/04/16 03:05:15;;;;;;;2.47;0.80;;;;;;;;;;5415102;26;20587;-87
2024/04/16 03:07:43;;;;;;;1.93;1.23;;;;;;;;;;5416161;26;20586;-86
2024/04/16 03:10:13;;;;;;;1.13;0.50;;;;;;;;;;5416596;26;20540;-86
2024/04/16 03:12:39;;;;;;;4.37;1.00;;;;;;;;;;5416931;26;20466;-85
2024/04/16 03:15:05;;;;;;;3.37;1.33;;;;;;;;;;5416609;26;20907;-85
2024/04/16 03:17:31;;;;;;;3.53;1.03;;;;;;;;;;5414453;26;20473;-86
2024/04/16 03:19:57;;;;;;;4.63;1.27;;;;;;;;;;5414851;26;20526;-85
2024/04/16 03:22:23;;;;;;;3.30;2.00;;;;;;;;;;5416630;26;20520;-85
2024/04/16 03:24:52;;;;;;;2.27;1.13;;;;;;;;;;5416624;26;20466;-85
2024/04/16 03:27:18;;;;;;;1.20;0.70;;;;;;;;;;5414666;26;20519;-86
2024/04/16 03:29:44;;;;;;;2.77;1.40;;;;;;;;;;5416638;26;20457;-87
2024/04/16 03:32:10;;;;;;;1.60;1.10;;;;;;;;;;5415880;26;20469;-85
2024/04/16 03:34:36;;;;;;;2.00;0.90;;;;;;;;;;5385178;26;20523;-84
2024/04/16 03:37:02;;;;;;;1.27;0.80;;;;;;;;;;5416498;26;20464;-85
2024/04/16 03:39:27;;;;;;;1.50;1.07;;;;;;;;;;5416162;26;20884;-86
2024/04/16 03:41:53;;;;;;;2.57;1.50;;;;;;;;;;5416447;26;20579;-86
2024/04/16 03:44:19;;;;;;;1.43;0.63;;;;;;;;;;5416256;26;20583;-85
2024/04/16 03:46:45;;;;;;;2.60;1.10;;;;;;;;;;5415743;26;20559;-86
2024/04/16 03:49:11;;;;;;;3.73;2.00;;;;;;;;;;5411448;26;20466;-85
2024/04/16 03:51:37;;;;;;;3.70;1.47;;;;;;;;;;5416432;26;20557;-88
2024/04/16 03:54:03;;;;;;;1.87;1.40;;;;;;;;;;5416377;26;20798;-85
2024/04/16 03:56:29;;;;;;;3.17;0.87;;;;;;;;;;5416204;26;20466;-89
2024/04/16 04:01:39;;;;;;;2.10;0.80;;;;;;;;;;5412988;26;20594;-87
2024/04/16 04:04:05;;;;;;;1.70;1.03;;;;;;;;;;5416011;26;21264;-87
2024/04/16 04:06:31;;;;;;;1.10;0.90;;;;;;;;;;5411592;26;20461;-87
2024/04/16 04:08:57;;;;;;;1.40;0.80;;;;;;;;;;5416234;26;20477;-87
2024/04/16 04:11:23;;;;;;;1.33;0.87;;;;;;;;;;5416185;26;20930;-85
2024/04/16 04:13:49;;;;;;;1.67;0.50;;;;;;;;;;5416506;26;20475;-90
2024/04/16 04:16:16;;;;;;;2.50;1.00;;;;;;;;;;5416584;26;20458;-87
2024/04/16 04:18:42;;;;;;;2.60;1.33;;;;;;;;;;5414260;26;20546;-87
2024/04/16 04:21:08;;;;;;;2.40;0.80;;;;;;;;;;5418575;26;21073;-86
2024/04/16 04:23:34;;;;;;;1.83;0.83;;;;;;;;;;5419524;26;20517;-86
2024/04/16 04:25:59;;;;;;;4.23;0.80;;;;;;;;;;5417442;26;20570;-85
2024/04/16 04:28:25;;;;;;;1.63;0.20;;;;;;;;;;5419184;26;20853;-87
2024/04/16 04:30:51;;;;;;;1.80;1.20;;;;;;;;;;5419515;26;20470;-87
2024/04/16 04:33:17;;;;;;;1.60;0.60;;;;;;;;;;5418632;26;20472;-88
2024/04/16 04:35:43;;;;;;;4.40;2.00;;;;;;;;;;5419312;26;20471;-87
2024/04/16 04:38:09;;;;;;;3.07;1.10;;;;;;;;;;5419148;26;20460;-88
2024/04/16 04:40:36;;;;;;;2.23;1.57;;;;;;;;;;5419070;26;20514;-87
2024/04/16 04:43:02;;;;;;;3.10;1.17;;;;;;;;;;5417488;26;20478;-87
2024/04/16 04:45:28;;;;;;;2.30;1.20;;;;;;;;;;5417101;26;20563;-88
2024/04/16 04:47:54;;;;;;;3.50;1.37;;;;;;;;;;5416577;26;21041;-87
2024/04/16 04:50:20;;;;;;;2.10;0.80;;;;;;;;;;5419003;26;20461;-86
2024/04/16 04:52:46;;;;;;;4.00;1.23;;;;;;;;;;5417121;26;21110;-87
2024/04/16 04:55:12;;;;;;;1.47;0.67;;;;;;;;;;5417049;26;20512;-87
2024/04/16 04:57:40;;;;;;;2.57;1.03;;;;;;;;;;5418762;26;20469;-86
2024/04/16 05:00:06;;;;;;;3.37;1.40;;;;;;;;;;5418670;26;20518;-87
2024/04/16 05:02:32;;;;;;;2.60;1.10;;;;;;;;;;5418145;26;20942;-86
2024/04/16 05:04:58;;;;;;;2.30;1.10;;;;;;;;;;5416779;26;20561;-86
2024/04/16 05:07:24;;;;;;;2.40;1.03;;;;;;;;;;5416723;26;20463;-87
2024/04/16 05:09:53;;;;;;;2.43;1.10;;;;;;;;;;5418769;26;20584;-87
2024/04/16 05:12:18;;;;;;;3.83;1.40;;;;;;;;;;5416631;26;20562;-86
2024/04/16 05:14:45;;;;;;;3.67;1.80;;;;;;;;;;5417730;26;20359;-87
2024/04/16 05:17:10;;;;;;;3.13;1.93;;;;;;;;;;5413040;26;20227;-86
2024/04/16 05:19:36;;;;;;;2.83;1.37;;;;;;;;;;5418804;26;20510;-86
2024/04/16 05:22:02;;;;;;;3.00;1.77;;;;;;;;;;5418502;26;20475;-88
2024/04/16 05:24:28;;;;;;;3.70;1.10;;;;;;;;;;5419051;26;20862;-86
2024/04/16 05:26:54;;;;;;;3.17;1.77;;;;;;;;;;5418244;26;20469;-84
2024/04/16 05:29:20;;;;;;;4.00;2.10;;;;;;;;;;5418304;26;20507;-83
2024/04/16 05:31:46;;;;;;;3.13;1.53;;;;;;;;;;5417348;26;20513;-83
2024/04/16 05:34:12;;;;;;;1.97;0.70;;;;;;;;;;5417968;26;21025;-84
2024/04/16 05:36:38;;;;;;;1.90;0.70;;;;;;;;;;5418203;26;20466;-84
2024/04/16 05:39:04;;;;;;;3.17;0.93;;;;;;;;;;5418022;26;20874;-83
2024/04/16 05:41:30;;;;;;;1.93;0.93;;;;;;;;;;5417921;26;20881;-83
2024/04/16 05:43:56;;;;;;;3.90;0.97;;;;;;;;;;5418048;26;20466;-85
2024/04/16 05:46:22;;;;;;;1.50;0.97;;;;;;;;;;5417661;26;20524;-84
2024/04/16 05:48:48;;;;;;;1.50;0.60;;;;;;;;;;5418025;26;20702;-84
2024/04/16 05:51:14;;;;;;;1.07;0.37;;;;;;;;;;5416230;26;20232;-84
2024/04/16 05:53:40;;;;;;;2.63;0.70;;;;;;;;;;5416103;26;20515;-82
2024/04/16 05:56:06;;;;;;;2.00;0.70;;;;;;;;;;5417865;26;20700;-85
2024/04/16 05:58:32;;;;;;;1.50;0.63;;;;;;;;;;5413000;26;20468;-86
2024/04/16 06:00:58;;;;;;;1.80;1.53;;;;;;;;;;5417774;26;20591;-86
2024/04/16 06:03:24;;;;;;;1.13;0.70;;;;;;;;;;5417446;26;21112;-86
2024/04/16 06:05:50;;;;;;;1.17;0.80;;;;;;;;;;5417630;26;20463;-86
2024/04/16 06:08:16;;;;;;;4.23;2.00;;;;;;;;;;5415754;26;20578;-84
2024/04/16 06:10:42;;;;;;;1.33;0.93;;;;;;;;;;5417785;26;21027;-84
2024/04/16 06:13:07;;;;;;;3.33;1.33;;;;;;;;;;5417473;26;20571;-87
2024/04/16 06:15:33;;;;;;;3.50;1.00;;;;;;;;;;5417885;26;20981;-84
2024/04/16 06:18:01;;;;;;;3.67;1.00;;;;;;;;;;5417151;26;20521;-85
2024/04/16 06:20:27;;;;;;;1.70;1.20;;;;;;;;;;5417511;26;20458;-86
2024/04/16 06:22:53;;;;;;;2.53;1.03;;;;;;;;;;5415545;26;20518;-87
2024/04/16 06:25:19;;;;;;;1.80;1.27;;;;;;;;;;5417373;26;20531;-85
2024/04/16 06:27:48;;;;;;;2.93;1.63;;;;;;;;;;5415361;26;20468;-86
2024/04/16 06:30:14;;;;;;;3.83;1.40;;;;;;;;;;5413239;26;20468;-89
2024/04/16 06:32:40;;;;;;;3.10;1.80;;;;;;;;;;5417096;26;20467;-84
2024/04/16 06:35:06;;;;;;;1.93;0.90;;;;;;;;;;5417417;26;20470;-85
2024/04/16 06:37:32;;;;;;;2.33;1.00;;;;;;;;;;5412597;26;20463;-88
2024/04/16 06:39:58;;;;;;;3.70;1.87;;;;;;;;;;5417712;26;20466;-87
2024/04/16 06:42:25;;;;;;;3.43;1.63;;;;;;;;;;5415915;26;20808;-84
2024/04/16 06:44:51;;;;;;;1.70;1.07;;;;;;;;;;5415505;26;20268;-86
2024/04/16 06:47:16;;;;;;;3.30;1.40;;;;;;;;;;5416702;26;20531;-83
2024/04/16 06:49:44;;;;;;;3.83;1.73;;;;;;;;;;5417090;26;21009;-85
2024/04/16 06:52:10;;;;;;;3.40;1.47;;;;;;;;;;5417135;26;20236;-88
2024/04/16 06:54:36;;;;;;;3.50;1.67;;;;;;;;;;5416977;26;20517;-86
2024/04/16 06:57:02;;;;;;;2.70;1.90;;;;;;;;;;5417294;26;20469;-85
2024/04/16 06:59:28;;;;;;;3.40;1.40;;;;;;;;;;5416936;26;20471;-87
2024/04/16 07:01:54;;;;;;;3.43;1.60;;;;;;;;;;5416787;26;20806;-88
2024/04/16 07:04:20;;;;;;;2.73;1.90;;;;;;;;;;5415552;26;20540;-88
2024/04/16 07:06:46;;;;;;;1.93;1.47;;;;;;;;;;5415264;26;20514;-86
2024/04/16 07:09:12;;;;;;;3.83;2.07;;;;;;;;;;5412577;26;20459;-85
2024/04/16 07:11:38;;;;;;;5.87;2.33;;;;;;;;;;5416672;26;20553;-83
2024/04/16 07:14:04;;;;;;;5.30;2.30;;;;;;;;;;5416555;26;20588;-84
2024/04/16 07:16:31;;;;;;;4.03;2.53;;;;;;;;;;5414374;26;20477;-83
2024/04/16 07:18:57;;;;;;;3.23;2.43;;;;;;;;;;5416302;26;21038;-85
2024/04/16 07:21:23;;;;;;;3.53;2.10;;;;;;;;;;5416429;26;20483;-84
2024/04/16 07:23:49;;;;;;;3.57;2.43;;;;;;;;;;5416553;26;20234;-84
2024/04/16 07:26:15;;;;;;;2.60;1.17;;;;;;;;;;5416372;26;20462;-84
2024/04/16 07:28:40;;;;;;;3.50;1.53;;;;;;;;;;5416368;26;20472;-82
2024/04/16 07:31:06;;;;;;;2.90;1.13;;;;;;;;;;5415900;26;20473;-82
2024/04/16 07:33:35;;;;;;;2.37;1.33;;;;;;;;;;5415842;26;21083;-83
2024/04/16 07:36:08;;;;;;;3.40;1.33;;;;;;;;;;5414200;26;20573;-84
2024/04/16 07:38:34;;;;;;;5.07;3.00;;;;;;;;;;5417857;26;20454;-85
2024/04/16 07:41:00;;;;;;;3.23;0.63;;;;;;;;;;5414205;26;20587;-84
2024/04/16 07:43:26;;;;;;;2.77;0.73;;;;;;;;;;5416062;26;20227;-86
2024/04/16 07:45:51;;;;;;;1.53;1.43;;;;;;;;;;5414426;26;20258;-87
2024/04/16 07:48:17;;;;;;;2.77;0.73;;;;;;;;;;5415609;26;20472;-87
2024/04/16 07:50:43;;;;;;;1.40;0.80;;;;;;;;;;5414279;26;20525;-87
2024/04/16 07:53:10;;;;;;;3.60;1.13;;;;;;;;;;5416254;26;20275;-85
2024/04/16 07:55:36;;;;;;;2.53;0.70;;;;;;;;;;5417719;26;20985;-87
2024/04/16 07:58:02;;;;;;;2.60;0.83;;;;;;;;;;5417713;26;20474;-82
2024/04/16 08:00:30;;;;;;;2.80;1.13;;;;;;;;;;5419621;26;21030;-83
2024/04/16 08:02:56;;;;;;;4.63;1.10;;;;;;;;;;5417136;26;20477;-83
2024/04/16 08:05:22;;;;;;;3.60;1.10;;;;;;;;;;5419302;26;20582;-84
2024/04/16 08:07:48;;;;;;;5.30;1.40;;;;;;;;;;5419287;26;20240;-82
2024/04/16 08:10:14;;;;;;;2.93;0.80;;;;;;;;;;5419307;26;20570;-83
2024/04/16 08:12:40;;;;;;;2.63;0.50;;;;;;;;;;5419348;26;20481;-82
2024/04/16 08:15:06;;;;;;;2.80;1.40;;;;;;;;;;5419111;26;20474;-82
2024/04/16 08:17:32;;;;;;;4.17;0.97;;;;;;;;;;5416944;26;20513;-82
2024/04/16 08:19:58;;;;;;;1.93;0.97;;;;;;;;;;5419149;26;20477;-83
2024/04/16 08:22:24;;;;;;;2.37;0.67;;;;;;;;;;5419019;26;20893;-82
2024/04/16 08:24:50;;;;;;;3.10;0.77;;;;;;;;;;5419046;26;20473;-84
2024/04/16 08:27:17;;;;;;;3.17;1.17;;;;;;;;;;5418826;26;20475;-83
2024/04/16 08:29:42;;;;;;;2.00;0.50;;;;;;;;;;5414186;26;20475;-83
2024/04/16 08:32:08;;;;;;;3.30;1.33;;;;;;;;;;5418525;26;20990;-83
2024/04/16 08:34:39;;;;;;;2.50;1.20;;;;;;;;;;5418963;26;20522;-82
2024/04/16 08:37:05;;;;;;;2.57;0.57;;;;;;;;;;5414680;26;20461;-82
2024/04/16 08:39:31;;;;;;;3.97;1.10;;;;;;;;;;5417192;26;20879;-82
2024/04/16 08:42:00;;;;;;;6.63;1.00;;;;;;;;;;5418893;26;20463;-82
2024/04/16 08:44:26;;;;;;;4.70;0.93;;;;;;;;;;5414728;26;20471;-82
2024/04/16 08:46:54;;;;;;;4.73;1.20;;;;;;;;;;5418115;26;20469;-82
2024/04/16 08:49:23;;;;;;;7.30;1.27;;;;;;;;;;5418622;26;20858;-84
2024/04/16 08:51:49;;;;;;;6.63;1.03;;;;;;;;;;5419005;26;20573;-82
2024/04/16 08:54:16;;;;;;;1.43;0.77;;;;;;;;;;5418666;26;20473;-83
2024/04/16 08:56:43;;;;;;;4.60;0.77;;;;;;;;;;5418611;26;20470;-83
2024/04/16 08:59:09;;;;;;;3.50;0.50;;;;;;;;;;5416840;26;20469;-83
2024/04/16 09:01:36;;;;;;;2.90;1.10;;;;;;;;;;5418214;26;20514;-81
2024/04/16 09:04:02;;;;;;;6.13;2.00;;;;;;;;;;5418558;26;20468;-82
2024/04/16 09:06:28;;;;;;;4.73;1.63;;;;;;;;;;5417589;26;20516;-84
2024/04/16 09:08:55;;;;;;;4.37;1.73;;;;;;;;;;5418193;26;20990;-84
2024/04/16 09:11:21;;;;;;;2.30;1.20;;;;;;;;;;5418457;26;20470;-84
2024/04/16 09:13:47;;;;;;;3.00;1.43;;;;;;;;;;5418238;26;20528;-85
2024/04/16 09:16:13;;;;;;;3.50;0.93;;;;;;;;;;5413346;26;20553;-82
2024/04/16 09:18:39;;;;;;;2.60;1.13;;;;;;;;;;5419137;26;20454;-82
2024/04/16 09:21:05;;;;;;;2.73;0.70;;;;;;;;;;5418786;26;20470;-82
2024/04/16 09:23:32;;;;;;;4.90;1.20;;;;;;;;;;5419003;26;20447;-83
2024/04/16 09:25:58;;;;;;;6.80;1.53;;;;;;;;;;5418888;26;20782;-82
2024/04/16 09:28:24;;;;;;;7.13;1.07;;;;;;;;;;5418873;26;20566;-82
2024/04/16 09:30:54;;;;;;;6.10;1.67;;;;;;;;;;5418369;26;20450;-82
2024/04/16 09:33:20;;;;;;;3.53;1.30;;;;;;;;;;5414029;26;20962;-82
2024/04/16 09:35:46;;;;;;;4.30;1.70;;;;;;;;;;5404442;26;20450;-82
2024/04/16 09:38:12;;;;;;;3.10;0.97;;;;;;;;;;5383147;26;20921;-83
2024/04/16 09:40:38;;;;;;;2.33;0.73;;;;;;;;;;5410443;26;20520;-83
2024/04/16 09:43:05;;;;;;;3.30;0.87;;;;;;;;;;5418679;26;20457;-83
2024/04/16 09:45:31;;;;;;;3.70;1.43;;;;;;;;;;5418596;26;20217;-83
2024/04/16 09:47:58;;;;;;;2.80;1.03;;;;;;;;;;5418308;26;20498;-85
2024/04/16 09:50:24;;;;;;;3.60;1.50;;;;;;;;;;5388713;26;20890;-83
2024/04/16 09:52:51;;;;;;;2.13;0.60;;;;;;;;;;5411385;26;20550;-83
2024/04/16 09:55:21;;;;;;;1.80;1.00;;;;;;;;;;5382895;26;20451;-85
2024/04/16 09:57:51;;;;;;;2.67;1.60;;;;;;;;;;5398839;26;20447;-83
2024/04/16 10:00:18;;;;;;;2.17;1.20;;;;;;;;;;5418458;26;20782;-84
2024/04/16 10:02:44;;;;;;;1.90;0.70;;;;;;;;;;5417893;26;20454;-82
2024/04/16 10:05:11;;;;;;;2.80;0.77;;;;;;;;;;5418468;26;20520;-82
2024/04/16 10:07:37;;;;;;;2.53;0.90;;;;;;;;;;5418408;26;20503;-82
2024/04/16 10:10:04;;;;;;;5.40;1.37;;;;;;;;;;5394624;26;20442;-81
2024/04/16 10:12:30;;;;;;;2.30;1.47;;;;;;;;;;5382810;26;20994;-84
2024/04/16 10:14:56;;;;;;;4.03;1.90;;;;;;;;;;5382456;26;20567;-82
2024/04/16 10:17:25;;;;;;;3.63;1.87;;;;;;;;;;5380771;26;20557;-82
2024/04/16 10:19:51;;;;;;;4.10;2.03;;;;;;;;;;5381004;26;20461;-83
2024/04/16 10:22:17;;;;;;;3.00;1.73;;;;;;;;;;5382381;26;20513;-85
2024/04/16 10:24:53;;;;;;;5.27;2.87;;;;;;;;;;5382329;26;20446;-83
2024/04/16 10:27:20;;;;;;;4.80;2.27;;;;;;;;;;5414186;26;20452;-83
2024/04/16 10:29:46;;;;;;;6.23;2.70;;;;;;;;;;5417755;26;20921;-83
2024/04/16 10:32:12;;;;;;;3.00;1.93;;;;;;;;;;5417670;26;20445;-86
2024/04/16 10:34:41;;;;;;;6.00;2.07;;;;;;;;;;5418068;26;20253;-83
2024/04/16 10:37:07;;;;;;;2.60;1.30;;;;;;;;;;5417127;26;20442;-87
2024/04/16 10:39:33;;;;;;;3.40;1.37;;;;;;;;;;5421284;26;20441;-81
2024/04/16 10:42:01;;;;;;;5.50;1.70;;;;;;;;;;5418023;26;20217;-82
2024/04/16 10:44:28;;;;;;;4.37;2.13;;;;;;;;;;5417881;26;20451;-83
2024/04/16 10:46:55;;;;;;;3.83;2.33;;;;;;;;;;5417084;26;20575;-82
2024/04/16 10:49:22;;;;;;;4.77;2.83;;;;;;;;;;5417699;26;20499;-85
2024/04/16 10:51:52;;;;;;;5.90;2.27;;;;;;;;;;5415760;26;20893;-89
2024/04/16 10:54:18;;;;;;;7.23;2.60;;;;;;;;;;5417570;26;20858;-84
2024/04/16 10:56:45;;;;;;;4.30;2.03;;;;;;;;;;5417546;26;20503;-84
2024/04/16 10:59:12;;;;;;;4.93;2.20;;;;;;;;;;5417673;26;20498;-84
2024/04/16 11:01:41;;;;;;;2.83;2.37;;;;;;;;;;5417198;26;20462;-81
2024/04/16 11:04:10;;;;;;;4.27;2.17;;;;;;;;;;5417541;26;20451;-84
2024/04/16 11:06:36;;;;;;;4.40;2.57;;;;;;;;;;5415749;26;20856;-84
2024/04/16 11:09:03;;;;;;;4.40;2.30;;;;;;;;;;5416998;26;20470;-84
2024/04/16 11:11:29;;;;;;;6.80;2.93;;;;;;;;;;5417492;26;20524;-88
2024/04/16 11:13:56;;;;;;;4.23;2.60;;;;;;;;;;5417137;26;20554;-83
2024/04/16 11:16:22;;;;;;;4.13;2.90;;;;;;;;;;5416690;26;20496;-85
2024/04/16 11:18:49;;;;;;;4.77;2.53;;;;;;;;;;5417322;26;20457;-83
2024/04/16 11:21:15;;;;;;;5.60;2.93;;;;;;;;;;5417005;26;21059;-84
2024/04/16 11:23:41;;;;;;;4.90;2.10;;;;;;;;;;5417229;26;20452;-83
2024/04/16 11:26:07;;;;;;;2.67;1.70;;;;;;;;;;5417199;26;20466;-81
2024/04/16 11:28:33;;;;;;;3.10;1.77;;;;;;;;;;5419274;26;20498;-81
2024/04/16 11:30:59;;;;;;;1.97;0.70;;;;;;;;;;5424350;26;20455;-79
2024/04/16 11:33:25;;;;;;;4.33;0.77;;;;;;;;;;5424608;26;20394;-81
2024/04/16 11:35:51;;;;;;;3.77;0.70;;;;;;;;;;5424557;26;20451;-81
2024/04/16 11:38:23;;;;;;;3.03;1.10;;;;;;;;;;5422839;26;20463;-82
2024/04/16 11:40:49;;;;;;;2.53;1.20;;;;;;;;;;5424788;26;20447;-81
2024/04/16 11:43:15;;;;;;;4.30;1.00;;;;;;;;;;5424425;26;20456;-82
2024/04/16 11:45:42;;;;;;;3.60;0.60;;;;;;;;;;5422144;26;20811;-83
2024/04/16 11:48:08;;;;;;;1.90;0.93;;;;;;;;;;5424074;26;20545;-84
2024/04/16 11:50:34;;;;;;;4.23;0.97;;;;;;;;;;5423986;26;20984;-84
2024/04/16 11:53:00;;;;;;;1.80;0.80;;;;;;;;;;5424169;26;20467;-85
2024/04/16 11:55:26;;;;;;;3.80;0.67;;;;;;;;;;5424180;26;20860;-86
2024/04/16 11:57:52;;;;;;;3.27;1.90;;;;;;;;;;5422465;26;20227;-84
2024/04/16 12:00:18;;;;;;;1.67;0.70;;;;;;;;;;5423472;26;20449;-86
2024/04/16 12:02:44;;;;;;;1.90;0.40;;;;;;;;;;5423832;26;20452;-85
2024/04/16 12:05:10;;;;;;;1.60;0.37;;;;;;;;;;5422399;26;20578;-85
2024/04/16 12:07:36;;;;;;;1.90;0.50;;;;;;;;;;5424076;26;20825;-86
2024/04/16 12:10:02;;;;;;;3.30;0.47;;;;;;;;;;5423960;26;20260;-85
2024/04/16 12:12:28;;;;;;;1.43;0.53;;;;;;;;;;5423968;26;20277;-85
2024/04/16 12:14:53;;;;;;;1.13;0.87;;;;;;;;;;5423879;26;20765;-84
2024/04/16 12:17:19;;;;;;;4.20;0.30;;;;;;;;;;5422977;26;20467;-87
2024/04/16 12:19:46;;;;;;;1.40;0.30;;;;;;;;;;5423124;26;20344;-86
2024/04/16 12:22:12;;;;;;;1.80;0.60;;;;;;;;;;5422780;26;20737;-83
2024/04/16 12:24:38;;;;;;;2.13;0.53;;;;;;;;;;5423111;26;20518;-85
2024/04/16 12:27:04;;;;;;;0.90;0.20;;;;;;;;;;5418244;26;20328;-88
2024/04/16 12:29:29;;;;;;;1.20;0.30;;;;;;;;;;5421530;26;20462;-86
2024/04/16 12:31:55;;;;;;;2.53;0.40;;;;;;;;;;5422017;26;20516;-82
2024/04/16 12:34:21;;;;;;;1.27;0.30;;;;;;;;;;5420674;26;20549;-82
2024/04/16 12:36:47;;;;;;;1.77;0.83;;;;;;;;;;5419414;26;20274;-82
2024/04/16 12:39:13;;;;;;;1.50;0.60;;;;;;;;;;5419251;26;20232;-83
2024/04/16 12:41:41;;;;;;;1.00;0.30;;;;;;;;;;5413377;26;20257;-82
2024/04/16 12:44:06;;;;;;;0.77;0.30;;;;;;;;;;5416381;26;20470;-82
2024/04/16 12:46:32;;;;;;;1.17;0.37;;;;;;;;;;5415983;26;20472;-83
2024/04/16 12:48:58;;;;;;;1.57;0.47;;;;;;;;;;5416978;26;20241;-83
2024/04/16 12:51:24;;;;;;;1.23;0.20;;;;;;;;;;5414137;26;20577;-82
2024/04/16 12:53:50;;;;;;;2.40;0.23;;;;;;;;;;5418708;26;20479;-82
2024/04/16 12:56:16;;;;;;;0.83;0.40;;;;;;;;;;5418779;26;20228;-82
2024/04/16 12:58:42;;;;;;;0.70;0.27;;;;;;;;;;5418672;26;20455;-82
2024/04/16 13:01:08;;;;;;;1.10;0.23;;;;;;;;;;5412513;26;20800;-82
2024/04/16 13:03:34;;;;;;;2.47;0.20;;;;;;;;;;5414187;26;20571;-82
2024/04/16 13:06:00;;;;;;;0.90;0.20;;;;;;;;;;5413708;26;20223;-82
2024/04/16 13:08:26;;;;;;;1.70;0.27;;;;;;;;;;5418644;26;20452;-82
2024/04/16 13:10:52;;;;;;;2.90;0.20;;;;;;;;;;5418516;26;20987;-79
2024/04/16 13:13:18;;;;;;;0.90;0.40;;;;;;;;;;5418420;26;20231;-82
2024/04/16 13:15:44;;;;;;;1.30;0.50;;;;;;;;;;5416317;26;20464;-81
2024/04/16 13:18:10;;;;;;;2.40;0.30;;;;;;;;;;5418385;26;20573;-80
2024/04/16 13:20:36;;;;;;;0.70;0.60;;;;;;;;;;5418125;26;20476;-81
2024/04/16 13:23:02;;;;;;;0.80;0.63;;;;;;;;;;5418317;26;20964;-81
2024/04/16 13:25:28;;;;;;;0.93;0.37;;;;;;;;;;5418507;26;20514;-81
2024/04/16 13:27:54;;;;;;;0.50;0.27;;;;;;;;;;5418200;26;20518;-81
2024/04/16 13:30:20;;;;;;;1.27;0.30;;;;;;;;;;5412867;26;20516;-81
2024/04/16 13:32:46;;;;;;;2.30;0.30;;;;;;;;;;5418158;26;20458;-82
2024/04/16 13:35:12;;;;;;;0.93;0.33;;;;;;;;;;5409635;26;20474;-81
2024/04/16 13:37:37;;;;;;;1.50;0.67;;;;;;;;;;5417148;26;20678;-80
2024/04/16 13:40:03;;;;;;;1.30;0.40;;;;;;;;;;5418580;26;20505;-81
2024/04/16 13:42:29;;;;;;;0.63;0.20;;;;;;;;;;5418602;26;20271;-81
2024/04/16 13:44:55;;;;;;;0.73;0.30;;;;;;;;;;5418031;26;20446;-81
2024/04/16 13:47:21;;;;;;;0.60;0.20;;;;;;;;;;5418366;26;20232;-81
2024/04/16 13:49:47;;;;;;;1.50;0.20;;;;;;;;;;5418485;26;20221;-81
2024/04/16 13:52:13;;;;;;;3.80;0.30;;;;;;;;;;5418169;26;20259;-82
2024/04/16 13:54:39;;;;;;;1.20;0.30;;;;;;;;;;5416482;26;20455;-81
2024/04/16 13:57:05;;;;;;;1.57;0.20;;;;;;;;;;5416155;26;20501;-80
2024/04/16 13:59:31;;;;;;;1.50;0.20;;;;;;;;;;5418489;26;20498;-81
2024/04/16 14:01:58;;;;;;;0.73;0.20;;;;;;;;;;5417979;26;20561;-81
2024/04/16 14:04:24;;;;;;;1.13;0.30;;;;;;;;;;5402536;26;20517;-81
2024/04/16 14:06:50;;;;;;;1.13;0.20;;;;;;;;;;5415403;26;20826;-80
2024/04/16 14:09:16;;;;;;;0.73;0.20;;;;;;;;;;5417370;26;20568;-81
2024/04/16 14:11:42;;;;;;;1.63;0.20;;;;;;;;;;5384936;26;20243;-81
2024/04/16 14:14:08;;;;;;;0.77;0.20;;;;;;;;;;5412113;26;20553;-81
2024/04/16 14:16:34;;;;;;;1.13;0.40;;;;;;;;;;5416638;26;20522;-81
2024/04/16 14:19:02;;;;;;;1.40;0.30;;;;;;;;;;5417172;26;20993;-82
2024/04/16 14:21:28;;;;;;;0.90;0.20;;;;;;;;;;5404597;26;20982;-81
2024/04/16 14:23:54;;;;;;;0.83;0.30;;;;;;;;;;5417088;26;20475;-81
2024/04/16 14:26:20;;;;;;;0.93;0.43;;;;;;;;;;5417047;26;20516;-82
2024/04/16 14:28:48;;;;;;;0.93;0.30;;;;;;;;;;5417030;26;20468;-82
2024/04/16 14:31:17;;;;;;;1.13;0.20;;;;;;;;;;5415912;26;20227;-82
2024/04/16 14:33:44;;;;;;;2.27;0.33;;;;;;;;;;5407640;26;20901;-82
2024/04/16 14:36:10;;;;;;;0.73;0.20;;;;;;;;;;5417211;26;20856;-82
2024/04/16 14:38:36;;;;;;;2.50;0.37;;;;;;;;;;5417178;26;20458;-82